Terminal Aerodrome Forecast
Issued by NWS Caribou, ME

Home | Current Version | Previous Version | Text Only | Print | Product List | Glossary On
Versions: 1 2 3 4 5 6 7 8 9 10 11 12
000
FTUS41 KCAR 020559
TAFBGR
TAF
KBGR 020559Z 0206/0306 VRB03KT 1SM -SN OVC015
     FM020900 VRB03KT 3SM -SN OVC020
     FM021400 31007KT 2SM -SN OVC025
     FM021700 30010KT 3SM -SN OVC030
     FM021800 29013G21KT P6SM OVC035=

USA.gov is the U.S. government's official web portal to all federal, state and local government web resources and services.